Details From CYHY - Hay River
To CYSF - Stony Rapids
Flight Number -
Tags Generated
Created
Modified
Stats Distance 313 nm / 580 km
Max Altitude 0 ft / 0 m
Waypoints 2
Social Downloads 0
Likes 0
Share VATSIM

Download

Looking for another format? Having issues loading an existing format? Contact us
Advertisement - Login to hide

Notes

Generated

Route

CYHY CYSF

ID Type Via Altitude Latitude Longitude Leg Dist Tot Dist Heading (true) Name
O CYHY APT - 0 ft / 0 m 60.83944˚ -115.78944˚ - 0 nm - -
O CYSF APT - 0 ft / 0 m 59.25236˚ -105.82838˚ 313 nm 313 nm 103° / 112° -

Altitude Profile

Advertisement - Login to hide

Weather


0- 5 10 15 20 25 30 35+ Temperature / ° C

Clouds and Precipitation
Forecast for 2018-05-22 00:00 UTC. Updated an hour ago

Ground ~20,000 ft ~40,000 ft Winds

CYHY

Details ICAO CYHY (YHY)
Name HAY RIVER
Region Canada
Timezone America/Yellowknife (UTC-6.0)
Stats Elevation 543 ft / 166 m (AMSL)
Location 60.840621° -115.784243°
Runways 2
Magnetic Variation 16.841° E

METAR

CYHY 220000Z 16014KT 15SM SCT230 28/03 A2968 RMK CI4 SLP058 DENSITY ALT 2500FT

Decode

TAF

TAF AMD TAF AMD CYHY 220016Z 2200/2212 16013KT P6SM SCT230 BECMG 2202/2204 VRB03KT FM220900 VRB03KT P6SM SCT100 TEMPO 2209/2212 BKN090 RMK NXT FCST BY 220600Z

Decode

Departure Runways

ID Width Length Bearing (true) Bearing (mag) Surface Threshold Offset Overrun Length
04 150 ft / 46 m 4,043 ft / 1,232 m 66.34° 49.50° Dirt 0 ft / 0 m 0 ft / 0 m
13 150 ft / 46 m 6,056 ft / 1,846 m 156.90° 140.06° Asphalt 0 ft / 0 m 0 ft / 0 m
22 150 ft / 46 m 4,043 ft / 1,232 m 246.36° 229.52° Dirt 0 ft / 0 m 0 ft / 0 m
31 150 ft / 46 m 6,056 ft / 1,846 m 336.92° 320.08° Asphalt 0 ft / 0 m 0 ft / 0 m

CYSF

Details ICAO CYSF (YSF)
Name Stony Rapids
Region Canada
Timezone America/Regina (UTC-6.0)
Stats Elevation 805 ft / 245 m (AMSL)
Location 59.250340° -105.841339°
Runways 1
Magnetic Variation 10.084° E

METAR

CYSF 220000Z AUTO 08010G16KT 9SM CLR 17/00 A2991 RMK SLP138 DENSITY ALT 1200FT

Decode

TAF

TAF CYSF 212338Z 2200/2212 08012G22KT P6SM SKC BECMG 2203/2205 09007KT RMK FCST BASED ON AUTO OBS. NXT FCST BY 220600Z

Decode

Destination Runways

ID Width Length Bearing (true) Bearing (mag) Surface Threshold Offset Overrun Length
06 98 ft / 30 m 5,055 ft / 1,541 m 253.01° 242.93° Asphalt 0 ft / 0 m 0 ft / 0 m
24 98 ft / 30 m 5,055 ft / 1,541 m 72.99° 62.91° Asphalt 0 ft / 0 m 0 ft / 0 m